Terminal Aerodrome Forecast
Issued by NWS

Home | Current Version | Previous Version | Text Only | Print | Product List | Glossary On
Versions: 1 2 3 4 5 6 7 8 9 10 11 12 13 14 15 16 17 18 19 20 21 22 23 24 25
000
FTUS42 KJAX 031236 AAA
TAFVQQ
TAF AMD
KVQQ 031236Z 0313/0412 00000KT 6SM BR SCT025 BKN050
     FM031500 12005KT P6SM BKN050
     FM031630 14007KT P6SM BKN035
     FM040000 13005KT P6SM SCT035 BKN250
     FM040600 17004KT 3SM BR SCT003=

USA.gov is the U.S. government's official web portal to all federal, state and local government web resources and services.